createdAt,value
2023-04-14T00:02:24.758Z,26.7
2023-04-14T00:08:02.826Z,26.6
2023-04-14T00:13:55.196Z,26.6
2023-04-14T00:19:48.682Z,26.6
2023-04-14T00:25:39.570Z,26.6
2023-04-14T00:31:31.435Z,26.6
2023-04-14T00:37:08.172Z,26.6
2023-04-14T00:42:59.893Z,26.6
2023-04-14T00:48:51.471Z,26.6
2023-04-14T00:54:28.066Z,26.6
2023-04-14T01:00:04.935Z,26.6
2023-04-14T01:05:58.510Z,26.6
2023-04-14T01:11:49.948Z,26.6
2023-04-14T01:17:41.857Z,26.6
2023-04-14T01:23:33.165Z,26.6
2023-04-14T01:29:09.879Z,26.6
2023-04-14T01:35:02.208Z,26.6
2023-04-14T01:40:53.765Z,26.5
2023-04-14T01:46:30.283Z,26.5
2023-04-14T01:52:23.021Z,26.6
2023-04-14T01:58:14.731Z,26.5
2023-04-14T02:04:07.849Z,26.5
2023-04-14T02:09:59.062Z,26.5
2023-04-14T02:15:50.229Z,26.4
2023-04-14T02:21:42.165Z,26.3
2023-04-14T02:27:33.535Z,26.3
2023-04-14T02:33:24.534Z,26.3
2023-04-14T02:39:15.700Z,26.3
2023-04-14T02:45:06.755Z,26.2
2023-04-14T02:50:58.662Z,26.1
2023-04-14T02:56:49.904Z,26.1
2023-04-14T03:02:42.662Z,26
2023-04-14T03:08:34.138Z,25.9
2023-04-14T03:14:10.172Z,25.9
2023-04-14T03:19:45.849Z,25.9
2023-04-14T03:25:37.975Z,25.9
2023-04-14T03:31:30.024Z,25.8
2023-04-14T03:37:21.305Z,25.8
2023-04-14T03:43:13.943Z,25.8
2023-04-14T03:49:10.513Z,25.8
2023-04-14T03:55:03.693Z,25.8
2023-04-14T04:00:55.626Z,25.8
2023-04-14T04:06:50.156Z,25.7
2023-04-14T04:12:42.041Z,25.7
2023-04-14T04:18:35.320Z,25.7
2023-04-14T04:24:26.784Z,25.7
2023-04-14T04:30:32.680Z,25.7
2023-04-14T04:36:25.554Z,25.5
2023-04-14T04:42:02.051Z,25.4
2023-04-14T04:47:38.098Z,25.4
2023-04-14T04:53:13.822Z,25.4
2023-04-14T04:58:51.350Z,25.4
2023-04-14T05:04:13.576Z,25.4
2023-04-14T05:09:52.232Z,25.4
2023-04-14T05:15:28.481Z,25.4
2023-04-14T05:21:04.602Z,25.4
2023-04-14T05:27:18.976Z,25.4
2023-04-14T05:32:43.144Z,25.4
2023-04-14T05:38:19.855Z,25.4
2023-04-14T05:44:11.625Z,25.4
2023-04-14T05:49:48.210Z,25.3
2023-04-14T05:55:25.554Z,25.3
2023-04-14T06:01:19.677Z,25.4
2023-04-14T06:07:00.259Z,25.3
2023-04-14T06:12:51.926Z,25.3
2023-04-14T06:18:12.131Z,25.3
2023-04-14T06:24:04.487Z,25.3
2023-04-14T06:29:40.535Z,25.3
2023-04-14T06:35:46.048Z,25.3
2023-04-14T06:41:36.961Z,25.1
2023-04-14T06:47:30.116Z,24.9
2023-04-14T06:53:22.047Z,24.8
2023-04-14T06:59:14.225Z,24.7
2023-04-14T07:05:08.959Z,24.6
2023-04-14T07:11:00.661Z,24.6
2023-04-14T07:16:52.497Z,24.4
2023-04-14T07:22:30.561Z,24.4
2023-04-14T07:28:35.357Z,34.5
2023-04-14T07:34:27.747Z,36.3
2023-04-14T07:40:31.033Z,34.3
2023-04-14T07:46:06.930Z,35.9
2023-04-14T07:51:59.828Z,38.9
2023-04-14T07:57:54.377Z,40.5
2023-04-14T08:03:36.848Z,41.7
2023-04-14T08:09:29.345Z,42.8
2023-04-14T08:15:04.955Z,43.4
2023-04-14T08:20:26.462Z,44.1
2023-04-14T08:26:02.937Z,44.8
2023-04-14T08:31:39.761Z,45.3
2023-04-14T08:38:31.401Z,45.7
2023-04-14T08:44:23.533Z,46.3
2023-04-14T08:50:16.907Z,46.8
2023-04-14T08:55:53.424Z,47.6
2023-04-14T09:01:46.519Z,48.5
2023-04-14T09:07:41.288Z,49.5
2023-04-14T09:13:32.506Z,50.3
2023-04-14T09:19:26.223Z,50.9
2023-04-14T09:27:11.028Z,52.7
2023-04-14T09:32:47.052Z,53.7
2023-04-14T09:38:23.228Z,54.1
2023-04-14T09:44:14.574Z,54.8
2023-04-14T09:49:50.882Z,55.9
2023-04-14T09:55:44.355Z,56.8
2023-04-14T10:01:36.613Z,57.6
2023-04-14T10:07:15.553Z,58.4
2023-04-14T10:13:06.606Z,59.2
2023-04-14T10:18:58.796Z,59.6
2023-04-14T10:24:52.014Z,60.3
2023-04-14T10:30:45.530Z,59.6
2023-04-14T10:36:38.097Z,57.9
2023-04-14T10:42:13.782Z,54.3
2023-04-14T10:48:05.141Z,53.1
2023-04-14T10:53:58.622Z,49.7
2023-04-14T10:59:49.372Z,46.8
2023-04-14T11:05:43.673Z,44.5
2023-04-14T11:11:34.798Z,42.6
2023-04-14T11:17:23.329Z,41.1
2023-04-14T11:23:15.941Z,39.9
2023-04-14T11:29:07.086Z,38.8
2023-04-14T11:35:00.603Z,37.8
2023-04-14T11:40:37.179Z,36.8
2023-04-14T11:46:29.041Z,35.9
2023-04-14T11:52:04.788Z,34.9
2023-04-14T11:57:57.132Z,34.4
2023-04-14T12:03:34.389Z,34.1
2023-04-14T12:09:13.467Z,33.6
2023-04-14T12:15:06.637Z,33.3
2023-04-14T12:20:12.320Z,33.1
2023-04-14T12:25:48.952Z,32.8
2023-04-14T12:31:41.227Z,32.6
2023-04-14T12:37:34.413Z,32.4
2023-04-14T12:43:10.247Z,32.2
2023-04-14T12:49:02.975Z,32
2023-04-14T12:54:55.081Z,31.9
2023-04-14T13:00:46.874Z,31.8
2023-04-14T13:06:43.108Z,31.6
2023-04-14T13:12:36.600Z,48.1
2023-04-14T13:19:24.392Z,44.5
2023-04-14T13:25:17.411Z,42.1
2023-04-14T13:31:09.497Z,48.1
2023-04-14T13:36:47.011Z,46.3
2023-04-14T13:42:41.091Z,43.7
2023-04-14T13:48:36.885Z,41.6
2023-04-14T13:54:28.462Z,39.8
2023-04-14T14:00:22.920Z,38.2
2023-04-14T14:06:18.474Z,36.9
2023-04-14T14:12:12.751Z,35.8
2023-04-14T14:17:59.652Z,34.7
2023-04-14T14:23:51.883Z,33.8
2023-04-14T14:29:40.558Z,33.1
2023-04-14T14:35:36.422Z,32.5
2023-04-14T14:41:29.064Z,32
2023-04-14T14:47:26.363Z,31.5
2023-04-14T14:53:29.193Z,31.1
2023-04-14T14:59:29.947Z,30.9
2023-04-14T15:05:08.725Z,30.4
2023-04-14T15:11:00.123Z,29.5
2023-04-14T15:16:52.406Z,27.8
2023-04-14T15:22:43.902Z,26.5
2023-04-14T15:28:35.484Z,25.5
2023-04-14T15:34:27.574Z,24.8
2023-04-14T15:40:19.698Z,22.7
2023-04-14T15:46:13.205Z,19.4
2023-04-14T15:52:24.379Z,18.3
2023-04-14T15:58:16.659Z,17.9
2023-04-14T16:04:10.070Z,16.8
2023-04-14T16:10:02.246Z,16.8
2023-04-14T16:15:55.501Z,16.7
2023-04-14T16:21:48.805Z,16.6
2023-04-14T16:27:40.953Z,16.6
2023-04-14T16:33:32.769Z,16.5
2023-04-14T16:39:24.645Z,16.4
2023-04-14T16:45:16.052Z,16.4
2023-04-14T16:51:08.855Z,16.4
2023-04-14T16:57:00.882Z,16.3
2023-04-14T17:02:55.729Z,16.3
2023-04-14T17:08:50.238Z,16.1
2023-04-14T17:14:42.289Z,16
2023-04-14T17:20:43.156Z,15.9
2023-04-14T17:26:35.072Z,15.8
2023-04-14T17:32:27.041Z,15.8
2023-04-14T17:38:18.672Z,16.1
2023-04-14T17:44:10.408Z,16.6
2023-04-14T17:50:03.769Z,16.9
2023-04-14T17:55:40.064Z,17.3
2023-04-14T18:01:32.052Z,17.5
2023-04-14T18:07:25.406Z,17.8
2023-04-14T18:13:16.923Z,17.9
2023-04-14T18:19:08.563Z,18.1
2023-04-14T18:25:09.136Z,18.3
2023-04-14T18:31:17.466Z,18.4
2023-04-14T18:37:09.755Z,18.5
2023-04-14T18:43:01.166Z,18.6
2023-04-14T18:54:30.966Z,18.8
2023-04-14T19:00:31.411Z,18.8
2023-04-14T19:06:08.812Z,18.9
2023-04-14T19:12:01.542Z,18.9
2023-04-14T19:17:48.324Z,18.9
2023-04-14T19:23:24.451Z,19
2023-04-14T19:29:01.988Z,19.1
2023-04-14T19:34:38.769Z,19.1
2023-04-14T19:40:15.395Z,19.2
2023-04-14T19:46:06.927Z,19.3
2023-04-14T19:51:55.352Z,19.3
2023-04-14T19:57:46.822Z,19.3
2023-04-14T20:04:05.409Z,19.3
2023-04-14T20:10:03.990Z,19.3
2023-04-14T20:15:55.440Z,19.3
2023-04-14T20:21:47.588Z,19.3
2023-04-14T20:27:39.005Z,19.3
2023-04-14T20:33:31.746Z,19.3
2023-04-14T20:39:22.794Z,19.3
2023-04-14T20:45:13.780Z,19.3
2023-04-14T20:51:06.302Z,19.2
2023-04-14T20:56:41.473Z,19.3
2023-04-14T21:02:33.002Z,19.3
2023-04-14T21:08:27.242Z,19.2
2023-04-14T21:18:22.560Z,19.3
2023-04-14T21:24:14.296Z,19.3
2023-04-14T21:30:05.337Z,19.2
2023-04-14T21:35:41.333Z,19.2
2023-04-14T21:41:33.639Z,19.3
2023-04-14T21:47:09.087Z,19.3
2023-04-14T21:53:02.038Z,19.2
2023-04-14T21:59:44.072Z,19.3
2023-04-14T22:05:47.177Z,19.2
2023-04-14T22:11:39.304Z,19.2
2023-04-14T22:17:16.429Z,19.2
2023-04-14T22:22:52.218Z,19.2
2023-04-14T22:28:43.558Z,19.2
2023-04-14T22:34:21.012Z,19.2
2023-04-14T22:39:56.932Z,19.2
2023-04-14T22:45:48.562Z,19.2
2023-04-14T22:51:41.233Z,19.2
2023-04-14T22:57:38.736Z,19.2
2023-04-14T23:03:42.381Z,19.2
2023-04-14T23:09:35.066Z,19.2
2023-04-14T23:15:26.165Z,19.2
2023-04-14T23:21:16.589Z,19.2
2023-04-14T23:27:08.947Z,19.2
2023-04-14T23:32:44.973Z,19.2
2023-04-14T23:38:36.762Z,19.1
2023-04-14T23:44:28.291Z,19.1
2023-04-14T23:51:17.492Z,19.1
2023-04-14T23:56:54.726Z,19.1
